Flight Track Log - Related Links

Times and Time Zones

All times are in EDT time to prevent confusion due to time zone crossing. See the FLG3862 flight status page for this flight to view local times or setup timezone preferences in your user account.

Time Position Orientation Groundspeed Altitude Reporting Facility
EDT Latitude Longitude Course Direction KTS MPH feet Rate Location/Type
Fri 11:37:08 AM 42.2017 -83.3497 94° East 138 159 1,200  Level Cleveland Center
Fri 11:37:51 AM 42.1706 -83.3428 171° South 182 209 2,800 2,296 Climbing Cleveland Center
Fri 11:39:03 AM 42.1003 -83.3231 168° South 257 296 5,600 2,190 Climbing Cleveland Center
Fri 11:39:57 AM 42.0772 -83.2436 111° Southeast 274 315 7,400 2,018 Climbing Cleveland Center
Fri 11:40:00 AM 42.3203 -82.7143 82° East  Level FlightAware
Fri 11:40:56 AM 42.0922 -83.1294 80° East 297 342 9,400  Level Cleveland Center
Fri 11:41:00 AM 42.3410 -82.5529 71° East  Level FlightAware
Fri 11:41:56 AM 42.1406 -83.0167 60° Northeast 319 367 11,300  Level Cleveland Center
Fri 11:42:00 AM 42.3665 -82.3974 94° East  Level FlightAware
Fri 11:42:56 AM 42.1933 -82.8869 61° Northeast 347 399 12,300  Level Cleveland Center
Fri 11:43:57 AM 42.2481 -82.7514 61° Northeast 381 438 14,100 1,500 Climbing Cleveland Center
Fri 11:44:56 AM 42.3047 -82.6103 61° Northeast 405 466 15,300 1,412 Climbing Cleveland Center
Fri 11:45:56 AM 42.3614 -82.4603 63° Northeast 429 494 16,900 1,550 Climbing Cleveland Center
Fri 11:46:56 AM 42.3619 -82.3058 90° East 413 475 18,400 1,339 Climbing Cleveland Center
Fri 11:47:57 AM 42.3539 -82.1314 94° East 413 475 19,600 1,100 Climbing Cleveland Center
Fri 11:48:56 AM 42.3456 -81.9625 94° East 431 496 20,600 1,008 Climbing Cleveland Center
Fri 11:49:56 AM 42.3411 -81.7967 92° East 442 509 21,600 950 Climbing Cleveland Center
Fri 11:50:56 AM 42.3322 -81.6506 95° East 442 509 22,500 942 Climbing Cleveland Center
Fri 11:51:57 AM 42.3275 -81.4847 92° East 442 509 23,500 1,000 Climbing Cleveland Center
Fri 11:52:56 AM 42.3203 -81.3161 93° East 447 514 24,500 756 Climbing Cleveland Center
Fri 11:53:56 AM 42.3506 -81.1450 76° East 454 522 25,000 500 Climbing Cleveland Center
Fri 11:54:56 AM 42.3844 -80.9683 75° East 472 543 25,500 900 Climbing Cleveland Center
Fri 11:55:56 AM 42.4206 -80.7772 76° East 472 543 26,800 750 Climbing Cleveland Center
Fri 11:56:56 AM 42.4497 -80.6056 77° East 464 534 27,000 100 Climbing Cleveland Center
Fri 11:57:56 AM 42.4808 -80.4256 77° East 474 545 27,000  Level Cleveland Center
Fri 11:58:56 AM 42.5139 -80.2481 76° East 480 552 27,000  Level Cleveland Center
Fri 11:59:56 AM 42.5467 -80.0703 76° East 480 552 27,000  Level Cleveland Center
Fri 12:00:57 PM 42.5811 -79.8867 76° East 491 565 27,000  Level Cleveland Center
Fri 12:01:57 PM 42.6133 -79.7058 76° East 491 565 27,000  Level Cleveland Center
Fri 12:02:56 PM 42.6450 -79.5247 77° East 491 565 27,000  Level Cleveland Center
Fri 12:03:56 PM 42.6744 -79.3433 77° East 486 559 27,000  Level Cleveland Center
Fri 12:04:57 PM 42.7058 -79.1619 77° East 486 559 27,000  Level Cleveland Center
Fri 12:05:56 PM 42.7367 -78.9806 77° East 491 565 27,000  Level Cleveland Center
Fri 12:06:56 PM 42.7653 -78.7958 78° East 491 565 27,000  Level Cleveland Center
Fri 12:07:56 PM 42.7956 -78.6111 77° East 491 565 27,000  Level Cleveland Center
Fri 12:08:56 PM 42.8256 -78.4261 77° East 491 565 27,000  Level Cleveland Center
Fri 12:09:57 PM 42.8553 -78.2381 79° East 491 565 27,000  Level Cleveland Center
Fri 12:10:00 PM 42.8482 -78.2658 79° East  Level FlightAware
Fri 12:10:56 PM 42.8869 -78.0528 77° East 491 565 27,000  Level Cleveland Center
Fri 12:11:56 PM 42.9161 -77.8672 78° East 491 565 27,000  Level Cleveland Center
Fri 12:12:57 PM 42.9450 -77.6817 78° East 491 565 27,000  Level Cleveland Center
Fri 12:13:57 PM 42.9711 -77.4931 79° East 491 565 27,000  Level Cleveland Center
Fri 12:15:00 PM 42.9954 -77.3354 78° East  Level FlightAware
Fri 12:16:13 PM 43.0361 -77.0656 78° East 501 577 27,000  Level Boston Center
Fri 12:17:14 PM 43.0644 -76.8769 78° East 501 577 27,000  Level Boston Center
Fri 12:18:15 PM 43.0925 -76.6856 79° East 506 582 27,000  Level Boston Center
Fri 12:19:13 PM 43.1175 -76.5167 78° East 506 582 27,000  Level Boston Center
Fri 12:20:13 PM 43.1531 -76.3283 75° East 506 582 27,000  Level Boston Center
Fri 12:21:14 PM 43.2297 -76.1619 58° Northeast 501 577 27,000  Level Boston Center
Fri 12:22:15 PM 43.3017 -75.9925 60° Northeast 506 582 27,000  Level Boston Center
Fri 12:23:15 PM 43.3756 -75.8281 58° Northeast 501 577 27,000  Level Boston Center
Fri 12:24:14 PM 43.4492 -75.6578 59° Northeast 501 577 27,000  Level Boston Center
Fri 12:25:13 PM 43.5228 -75.4869 59° Northeast 506 582 27,000  Level Boston Center
Fri 12:26:14 PM 43.5939 -75.3156 60° Northeast 506 582 27,000  Level Boston Center
Fri 12:27:15 PM 43.6647 -75.1467 60° Northeast 506 582 27,000 -645 Level Boston Center
Fri 12:28:15 PM 43.7331 -74.9772 61° Northeast 506 582 25,700 -1,678 Descending Boston Center
Fri 12:29:13 PM 43.8100 -74.7936 60° Northeast 501 577 23,700 -2,085 Descending Boston Center
Fri 12:30:13 PM 43.8822 -74.6236 59° Northeast 501 577 21,600 -2,033 Descending Boston Center
Fri 12:31:14 PM 43.9478 -74.4614 61° Northeast 490 564 19,600 -1,377 Descending Boston Center
Fri 12:32:15 PM 44.0086 -74.3106 61° Northeast 469 540 18,800 -1,576 Descending Boston Center
Fri 12:33:12 PM 44.0669 -74.1681 60° Northeast 441 507 16,500 -2,237 Descending Boston Center
Fri 12:34:13 PM 44.1189 -74.0422 60° Northeast 415 478 14,400 -2,164 Descending Boston Center
Fri 12:35:14 PM 44.1894 -73.9050 54° Northeast 420 483 12,100 -2,262 Descending Boston Center

Login

Don't have an account? Register now (free) for customized features, flight alerts, and more!